Time;durP1;ratioP1;P1;durP2;ratioP2;P2;SDS_P1;SDS_P2;PMS_P1;PMS_P2;Temp;Humidity;BMP_temperature;BMP_pressure;BME280_temperature;BME280_humidity;BME280_pressure;Samples;Min_cycle;Max_cycle;Signal;HPM_P1;HPM_P2
2023/05/04 00:01:50;;;;;;;6.85;4.22;;;21.60;62.50;;;;;;4911084;28;87219;-86
2023/05/04 00:04:16;;;;;;;8.35;4.65;;;21.60;61.80;;;;;;4908988;28;87951;-86
2023/05/04 00:06:42;;;;;;;7.53;4.35;;;21.60;61.70;;;;;;4911039;28;87949;-87
2023/05/04 00:09:09;;;;;;;6.82;3.85;;;21.60;61.80;;;;;;4870996;28;1199580;-85
2023/05/04 00:11:35;;;;;;;7.88;4.38;;;21.60;61.80;;;;;;4894674;28;89342;-85
2023/05/04 00:14:01;;;;;;;6.57;4.10;;;21.60;61.90;;;;;;4892952;28;90939;-85
2023/05/04 00:16:27;;;;;;;6.72;4.15;;;21.50;61.80;;;;;;4895231;28;88409;-86
2023/05/04 00:18:52;;;;;;;8.93;4.20;;;21.50;61.80;;;;;;4890149;28;90398;-85
2023/05/04 00:21:18;;;;;;;8.38;4.43;;;21.60;62.00;;;;;;4891593;28;89251;-86
2023/05/04 00:23:44;;;;;;;7.75;4.03;;;21.50;61.90;;;;;;4891951;28;88974;-87
2023/05/04 00:26:09;;;;;;;9.07;4.18;;;21.50;61.70;;;;;;4915475;28;87658;-87
2023/05/04 00:28:35;;;;;;;6.25;3.85;;;21.50;61.80;;;;;;4911584;28;87695;-85
2023/05/04 00:31:01;;;;;;;8.07;4.15;;;21.50;61.80;;;;;;4910325;28;87737;-85
2023/05/04 00:33:26;;;;;;;5.93;3.95;;;21.50;61.80;;;;;;4894139;28;90813;-86
2023/05/04 00:35:52;;;;;;;7.50;4.10;;;21.50;61.70;;;;;;4912968;28;87823;-84
2023/05/04 00:38:18;;;;;;;6.70;4.13;;;21.50;61.70;;;;;;4916580;28;87540;-85
2023/05/04 00:40:44;;;;;;;9.10;4.20;;;21.50;61.80;;;;;;4900787;28;91768;-85
2023/05/04 00:43:09;;;;;;;7.63;4.25;;;21.50;61.70;;;;;;4913931;28;88503;-86
2023/05/04 00:45:35;;;;;;;7.70;4.72;;;21.50;61.70;;;;;;4912255;28;87770;-86
2023/05/04 00:48:02;;;;;;;6.75;4.03;;;21.40;61.70;;;;;;4916308;28;87669;-86
2023/05/04 00:50:27;;;;;;;8.32;4.70;;;21.50;61.70;;;;;;4915327;28;90527;-86
2023/05/04 00:52:56;;;;;;;5.82;4.05;;;21.50;61.60;;;;;;4913655;28;88069;-87
2023/05/04 00:55:22;;;;;;;7.38;4.22;;;21.50;61.70;;;;;;4919688;28;86931;-86
2023/05/04 00:57:49;;;;;;;6.47;3.97;;;21.40;61.90;;;;;;4902763;28;87984;-86
2023/05/04 01:00:18;;;;;;;7.25;4.22;;;21.40;61.70;;;;;;4921184;28;87703;-87
2023/05/04 01:02:43;;;;;;;7.40;4.38;;;21.40;61.70;;;;;;4909785;28;90275;-86
2023/05/04 01:05:13;;;;;;;5.97;3.88;;;21.40;61.70;;;;;;4900642;28;89190;-87
2023/05/04 01:07:45;;;;;;;4.95;3.40;;;21.40;61.60;;;;;;4901059;28;88254;-86
2023/05/04 01:10:10;;;;;;;6.15;4.15;;;21.40;61.60;;;;;;4899845;28;90567;-86
2023/05/04 01:12:47;;;;;;;5.50;3.72;;;21.40;61.70;;;;;;4897749;28;90676;-87
2023/05/04 01:15:14;;;;;;;4.90;3.55;;;21.40;61.70;;;;;;4896713;28;87426;-86
2023/05/04 01:17:40;;;;;;;5.05;3.40;;;21.40;61.60;;;;;;4909540;28;89346;-87
2023/05/04 01:20:06;;;;;;;6.07;4.07;;;21.40;61.80;;;;;;4898262;28;91439;-86
2023/05/04 01:22:32;;;;;;;6.63;3.70;;;21.40;61.50;;;;;;4897088;28;91198;-86
2023/05/04 01:24:57;;;;;;;7.18;3.97;;;21.30;61.50;;;;;;4912624;28;87830;-87
2023/05/04 01:27:39;;;;;;;6.70;3.88;;;21.30;61.50;;;;;;4897873;28;89752;-87
2023/05/04 01:30:12;;;;;;;7.30;4.40;;;21.30;61.50;;;;;;4914036;28;89575;-86
2023/05/04 01:32:40;;;;;;;6.57;3.85;;;21.30;62.30;;;;;;4898164;28;91782;-86
2023/05/04 01:35:07;;;;;;;7.78;4.28;;;21.30;61.40;;;;;;4917635;28;88073;-88
2023/05/04 01:37:33;;;;;;;5.40;3.67;;;21.30;61.50;;;;;;4902285;28;89919;-87
2023/05/04 01:39:59;;;;;;;7.85;3.90;;;21.30;61.40;;;;;;4914151;28;87586;-86
2023/05/04 01:42:24;;;;;;;5.20;3.38;;;21.30;61.50;;;;;;4917839;28;88227;-87
2023/05/04 01:44:50;;;;;;;6.35;4.00;;;21.30;61.50;;;;;;4899745;28;87483;-86
2023/05/04 01:47:16;;;;;;;5.13;3.53;;;21.20;61.20;;;;;;4901324;28;89617;-86
2023/05/04 01:49:42;;;;;;;6.78;4.13;;;21.30;61.40;;;;;;4917135;28;87805;-86
2023/05/04 01:52:07;;;;;;;6.65;3.80;;;21.30;61.20;;;;;;4896961;28;91032;-85
2023/05/04 01:54:33;;;;;;;4.97;3.72;;;21.30;61.30;;;;;;4915294;28;89113;-87
2023/05/04 01:57:00;;;;;;;6.07;3.67;;;21.20;61.20;;;;;;4899222;28;89269;-86
2023/05/04 01:59:26;;;;;;;6.43;3.65;;;21.20;61.20;;;;;;4898641;28;89227;-86
2023/05/04 02:01:51;;;;;;;5.15;3.67;;;21.30;61.30;;;;;;4918425;28;88178;-86
2023/05/04 02:04:17;;;;;;;5.75;3.63;;;21.20;61.20;;;;;;4898526;28;87287;-86
2023/05/04 02:06:43;;;;;;;7.05;3.50;;;21.20;61.20;;;;;;4899139;28;90014;-86
2023/05/04 02:09:08;;;;;;;7.00;3.67;;;21.20;61.20;;;;;;4918156;28;87800;-85
2023/05/04 02:11:34;;;;;;;5.07;3.58;;;21.20;61.10;;;;;;4913249;28;87417;-86
2023/05/04 02:14:00;;;;;;;5.80;3.90;;;21.20;61.10;;;;;;4917280;28;87839;-87
2023/05/04 02:16:25;;;;;;;5.78;3.58;;;21.20;61.20;;;;;;4899285;28;89507;-87
2023/05/04 02:18:51;;;;;;;6.70;3.95;;;21.20;61.10;;;;;;4900545;28;90422;-84
2023/05/04 02:21:16;;;;;;;6.00;4.15;;;21.20;61.10;;;;;;4896664;28;90913;-87
2023/05/04 02:23:42;;;;;;;5.10;3.28;;;21.20;61.20;;;;;;4899394;28;87433;-86
2023/05/04 02:26:08;;;;;;;6.88;3.80;;;21.20;61.00;;;;;;4914192;28;88320;-87
2023/05/04 02:28:34;;;;;;;5.43;3.38;;;21.20;61.10;;;;;;4899835;28;89429;-85
2023/05/04 02:30:59;;;;;;;5.55;3.67;;;21.20;61.90;;;;;;4915761;28;87347;-86
2023/05/04 02:33:25;;;;;;;4.47;3.22;;;21.10;60.90;;;;;;4904863;28;87678;-86
2023/05/04 02:35:51;;;;;;;4.38;3.30;;;21.10;60.90;;;;;;4918851;28;87564;-85
2023/05/04 02:38:16;;;;;;;5.93;3.38;;;21.20;61.10;;;;;;4917301;28;87560;-86
2023/05/04 02:40:42;;;;;;;6.25;3.10;;;21.20;61.00;;;;;;4899808;28;90191;-86
2023/05/04 02:43:07;;;;;;;5.13;3.47;;;21.20;60.70;;;;;;4910035;28;88532;-85
2023/05/04 02:45:34;;;;;;;5.70;3.67;;;21.20;61.00;;;;;;4899731;28;88390;-86
2023/05/04 02:48:00;;;;;;;4.82;3.15;;;21.20;61.10;;;;;;4899792;28;91100;-85
2023/05/04 02:50:25;;;;;;;4.85;3.50;;;21.20;60.90;;;;;;4914209;28;89555;-85
2023/05/04 02:52:51;;;;;;;5.22;3.35;;;21.10;60.90;;;;;;4893880;28;87194;-85
2023/05/04 02:55:16;;;;;;;5.07;3.40;;;21.10;61.00;;;;;;4915030;28;87675;-85
2023/05/04 02:57:42;;;;;;;4.88;3.20;;;21.10;60.80;;;;;;4913201;28;87758;-85
2023/05/04 03:00:08;;;;;;;4.50;3.42;;;21.10;60.90;;;;;;4901489;28;89062;-85
2023/05/04 03:02:34;;;;;;;5.53;3.45;;;21.10;60.90;;;;;;4895017;28;87880;-86
2023/05/04 03:04:59;;;;;;;5.18;3.22;;;21.10;60.80;;;;;;4916054;28;88723;-86
2023/05/04 03:07:25;;;;;;;4.97;2.97;;;21.10;61.00;;;;;;4910971;28;89159;-87
2023/05/04 03:09:51;;;;;;;4.88;3.33;;;21.10;61.00;;;;;;4896424;28;91332;-86
2023/05/04 03:12:17;;;;;;;4.57;3.05;;;21.10;61.20;;;;;;4913124;28;87352;-85
2023/05/04 03:14:42;;;;;;;5.28;3.50;;;21.10;61.10;;;;;;4915306;28;87578;-86
2023/05/04 03:17:08;;;;;;;4.28;3.13;;;21.10;61.10;;;;;;4902437;28;90627;-86
2023/05/04 03:19:33;;;;;;;5.80;3.22;;;21.10;61.10;;;;;;4910105;28;87366;-86
2023/05/04 03:21:59;;;;;;;4.47;3.00;;;21.10;61.00;;;;;;4915886;28;87199;-85
2023/05/04 03:24:25;;;;;;;5.28;3.42;;;21.10;61.30;;;;;;4915541;28;86586;-86
2023/05/04 03:26:50;;;;;;;5.30;3.20;;;21.10;61.30;;;;;;4899956;28;89188;-87
2023/05/04 03:29:16;;;;;;;4.07;2.78;;;21.10;61.10;;;;;;4898490;28;90125;-86
2023/05/04 03:31:42;;;;;;;4.97;3.10;;;21.00;61.00;;;;;;4912830;28;88741;-86
2023/05/04 03:34:08;;;;;;;5.63;3.65;;;21.00;61.10;;;;;;4917115;28;87923;-86
2023/05/04 03:36:34;;;;;;;5.25;3.25;;;21.00;61.30;;;;;;4911459;28;87596;-87
2023/05/04 03:39:00;;;;;;;4.50;3.05;;;21.00;62.00;;;;;;4908722;28;91410;-86
2023/05/04 03:41:25;;;;;;;5.18;3.70;;;21.00;61.30;;;;;;4896359;28;87020;-85
2023/05/04 03:43:51;;;;;;;4.47;3.20;;;21.00;61.20;;;;;;4913903;28;87692;-86
2023/05/04 03:46:17;;;;;;;4.70;3.22;;;21.00;61.10;;;;;;4913594;28;88138;-85
2023/05/04 03:48:42;;;;;;;4.18;2.83;;;21.00;61.10;;;;;;4897256;28;90379;-85
2023/05/04 03:51:08;;;;;;;4.97;3.63;;;21.00;61.10;;;;;;4895649;28;87591;-85
2023/05/04 03:53:34;;;;;;;4.60;3.38;;;21.00;61.10;;;;;;4893974;28;89482;-86
2023/05/04 03:56:00;;;;;;;3.92;2.72;;;21.00;61.10;;;;;;4894325;28;92158;-85
2023/05/04 03:58:26;;;;;;;3.80;2.78;;;21.00;61.30;;;;;;4892365;28;91366;-85
2023/05/04 04:00:52;;;;;;;4.63;3.13;;;21.00;61.30;;;;;;4912611;28;87394;-84
2023/05/04 04:03:18;;;;;;;4.38;3.25;;;21.00;61.20;;;;;;4905902;28;90130;-85
2023/05/04 04:05:43;;;;;;;4.20;3.03;;;21.00;61.20;;;;;;4913980;28;88220;-87
2023/05/04 04:08:09;;;;;;;3.78;2.80;;;21.00;61.10;;;;;;4895446;28;89885;-85
2023/05/04 04:10:35;;;;;;;3.95;2.63;;;20.90;60.90;;;;;;4916632;28;87646;-86
2023/05/04 04:13:01;;;;;;;3.63;2.65;;;20.90;61.30;;;;;;4893451;28;89339;-85
2023/05/04 04:15:26;;;;;;;3.97;3.05;;;20.90;61.40;;;;;;4897823;28;90944;-84
2023/05/04 04:17:52;;;;;;;6.57;3.25;;;20.90;61.10;;;;;;4913989;28;87908;-86
2023/05/04 04:20:18;;;;;;;4.25;3.28;;;20.90;61.30;;;;;;4913783;28;89463;-85
2023/05/04 04:22:44;;;;;;;5.95;3.03;;;20.90;61.20;;;;;;4898174;28;89605;-86
2023/05/04 04:25:09;;;;;;;4.90;3.20;;;20.90;61.10;;;;;;4896991;28;89434;-85
2023/05/04 04:27:36;;;;;;;3.92;2.80;;;20.90;61.10;;;;;;4894831;28;90457;-86
2023/05/04 04:30:03;;;;;;;5.38;2.60;;;20.90;61.20;;;;;;4908857;28;88012;-85
2023/05/04 04:32:29;;;;;;;4.18;2.95;;;20.90;61.10;;;;;;4911731;28;87546;-85
2023/05/04 04:34:54;;;;;;;4.97;3.22;;;20.90;61.30;;;;;;4914130;28;88034;-85
2023/05/04 04:37:21;;;;;;;4.30;3.25;;;20.80;61.20;;;;;;4902544;28;88331;-86
2023/05/04 04:39:46;;;;;;;4.65;2.55;;;20.80;61.10;;;;;;4896378;28;87559;-85
2023/05/04 04:42:12;;;;;;;4.18;2.83;;;20.80;61.10;;;;;;4897561;28;89370;-87
2023/05/04 04:44:38;;;;;;;3.72;3.05;;;20.80;61.00;;;;;;4897545;28;90886;-85
2023/05/04 04:47:05;;;;;;;5.28;3.20;;;20.80;60.90;;;;;;4897293;28;91483;-84
2023/05/04 04:49:31;;;;;;;3.97;3.03;;;20.80;61.10;;;;;;4912329;28;87844;-86
2023/05/04 04:51:56;;;;;;;4.75;3.20;;;20.80;61.20;;;;;;4899293;28;89079;-86
2023/05/04 04:54:22;;;;;;;3.53;2.88;;;20.80;61.10;;;;;;4908125;28;88070;-86
2023/05/04 04:56:48;;;;;;;4.57;2.95;;;20.80;61.00;;;;;;4914277;28;87963;-86
2023/05/04 04:59:14;;;;;;;5.53;3.05;;;20.80;61.20;;;;;;4915568;28;87940;-84
2023/05/04 05:01:41;;;;;;;4.50;2.70;;;20.80;61.10;;;;;;4893137;28;89297;-85
2023/05/04 05:04:06;;;;;;;3.85;2.65;;;20.80;60.90;;;;;;4894453;28;89556;-85
2023/05/04 05:06:32;;;;;;;4.32;2.83;;;20.80;61.00;;;;;;4917802;28;87747;-85
2023/05/04 05:08:58;;;;;;;3.88;2.92;;;20.80;61.60;;;;;;4915180;28;88579;-85
2023/05/04 05:11:23;;;;;;;3.50;2.72;;;20.80;61.60;;;;;;4920405;28;87968;-85
2023/05/04 05:13:49;;;;;;;3.35;2.80;;;20.80;61.40;;;;;;4896306;28;90219;-84
2023/05/04 05:16:15;;;;;;;3.00;2.60;;;20.80;61.40;;;;;;4894737;28;89110;-84
2023/05/04 05:18:41;;;;;;;4.07;2.83;;;20.80;61.40;;;;;;4895152;28;87445;-85
2023/05/04 05:21:08;;;;;;;5.00;3.47;;;20.80;61.20;;;;;;4915831;28;87466;-86
2023/05/04 05:23:34;;;;;;;5.07;2.90;;;20.80;61.50;;;;;;4898756;28;90516;-86
2023/05/04 05:26:00;;;;;;;3.97;2.83;;;20.80;61.20;;;;;;4905566;28;90456;-85
2023/05/04 05:28:26;;;;;;;3.53;2.50;;;20.90;61.30;;;;;;4900536;28;87755;-85
2023/05/04 05:30:51;;;;;;;4.15;2.88;;;20.90;61.10;;;;;;4918444;28;87703;-85
2023/05/04 05:33:17;;;;;;;4.18;2.50;;;20.90;61.20;;;;;;4911049;28;88673;-86
2023/05/04 05:35:43;;;;;;;4.10;3.05;;;21.00;61.00;;;;;;4915603;28;89494;-86
2023/05/04 05:38:09;;;;;;;4.32;2.65;;;20.90;60.20;;;;;;4919072;28;87242;-85
2023/05/04 05:40:35;;;;;;;5.45;3.00;;;20.90;60.50;;;;;;4913977;28;87373;-86
2023/05/04 05:43:04;;;;;;;5.75;2.63;;;21.00;59.90;;;;;;4912921;28;87923;-84
2023/05/04 05:45:30;;;;;;;5.15;3.10;;;21.00;60.20;;;;;;4911315;28;88038;-85
2023/05/04 05:47:55;;;;;;;3.75;2.40;;;21.00;60.70;;;;;;4902659;28;87883;-85
2023/05/04 05:50:22;;;;;;;4.50;2.70;;;21.00;60.50;;;;;;4896957;28;89875;-84
2023/05/04 05:52:48;;;;;;;5.15;2.78;;;21.00;60.70;;;;;;4896426;28;90413;-84
2023/05/04 05:55:14;;;;;;;9.65;2.92;;;21.00;60.80;;;;;;4911776;28;88288;-86
2023/05/04 05:57:40;;;;;;;6.25;2.60;;;21.00;60.80;;;;;;4914745;28;88547;-85
2023/05/04 06:00:06;;;;;;;4.05;2.67;;;21.10;60.70;;;;;;4910411;28;88059;-86
2023/05/04 06:02:32;;;;;;;4.57;2.83;;;21.00;61.00;;;;;;4914310;28;88790;-84
2023/05/04 06:04:57;;;;;;;8.88;2.65;;;21.00;61.70;;;;;;4897523;28;90744;-85
2023/05/04 06:07:23;;;;;;;6.10;2.70;;;21.00;62.10;;;;;;4910758;28;87427;-84
2023/05/04 06:09:49;;;;;;;5.47;2.80;;;21.20;62.00;;;;;;4887707;28;89307;-85
2023/05/04 06:12:16;;;;;;;4.13;2.97;;;21.20;62.00;;;;;;4907012;28;88953;-87
2023/05/04 06:14:44;;;;;;;7.15;3.22;;;21.20;62.30;;;;;;4900697;28;88689;-86
2023/05/04 06:17:10;;;;;;;6.50;3.05;;;21.10;62.50;;;;;;4908874;28;87916;-84
2023/05/04 06:19:37;;;;;;;6.07;3.17;;;21.10;62.70;;;;;;4908404;28;88181;-85
2023/05/04 06:22:03;;;;;;;4.35;3.10;;;21.10;62.80;;;;;;4891168;28;92515;-86
2023/05/04 06:24:31;;;;;;;5.63;3.58;;;21.10;62.80;;;;;;4909522;28;87381;-84
2023/05/04 06:26:57;;;;;;;5.65;3.60;;;21.10;62.90;;;;;;4888453;28;87552;-88
2023/05/04 06:29:24;;;;;;;6.38;3.45;;;21.20;62.80;;;;;;4895882;28;89485;-87
2023/05/04 06:31:50;;;;;;;8.50;3.58;;;21.20;62.50;;;;;;4898393;28;90945;-86
2023/05/04 06:34:17;;;;;;;6.65;3.38;;;21.20;62.50;;;;;;4914497;28;89242;-86
2023/05/04 06:36:43;;;;;;;7.70;3.38;;;21.20;62.50;;;;;;4898174;28;87630;-86
2023/05/04 06:39:11;;;;;;;6.18;3.83;;;21.20;62.50;;;;;;4904911;28;87557;-86
2023/05/04 06:41:36;;;;;;;7.22;3.10;;;21.20;62.60;;;;;;4910869;28;87803;-87
2023/05/04 06:44:08;;;;;;;8.30;3.50;;;21.30;62.40;;;;;;4905159;28;88504;-86
2023/05/04 06:46:36;;;;;;;6.18;3.03;;;21.30;62.50;;;;;;4904069;28;88597;-88
2023/05/04 06:49:03;;;;;;;5.43;2.80;;;21.40;61.60;;;;;;4885830;28;88525;-88
2023/05/04 06:51:29;;;;;;;7.45;3.15;;;21.40;61.00;;;;;;4894160;28;90820;-86
2023/05/04 06:53:55;;;;;;;5.22;2.85;;;21.40;60.70;;;;;;4905646;28;88376;-87
2023/05/04 06:56:22;;;;;;;5.85;3.45;;;21.40;61.10;;;;;;4887179;28;87507;-89
2023/05/04 06:58:49;;;;;;;4.78;3.13;;;21.40;60.60;;;;;;4905073;28;89143;-88
2023/05/04 07:01:15;;;;;;;6.30;3.08;;;21.50;60.20;;;;;;4891548;28;90599;-87
2023/05/04 07:03:41;;;;;;;5.22;2.80;;;21.60;60.20;;;;;;4910098;28;88350;-86
2023/05/04 07:06:08;;;;;;;7.05;3.08;;;21.50;61.10;;;;;;4904327;28;87719;-88
2023/05/04 07:08:34;;;;;;;11.63;4.28;;;21.50;61.30;;;;;;4893071;28;90100;-88
2023/05/04 07:11:00;;;;;;;17.23;4.57;;;21.60;60.50;;;;;;4899365;28;91714;-88
2023/05/04 07:13:26;;;;;;;15.85;5.20;;;21.60;59.00;;;;;;4895810;28;91548;-87
2023/05/04 07:15:51;;;;;;;18.27;5.20;;;21.60;59.60;;;;;;4898974;28;87656;-87
2023/05/04 07:18:17;;;;;;;15.70;5.55;;;21.70;59.70;;;;;;4915102;28;87889;-87
2023/05/04 07:20:43;;;;;;;15.98;5.57;;;21.70;59.60;;;;;;4897174;28;91010;-87
2023/05/04 07:23:09;;;;;;;16.83;5.43;;;21.60;59.60;;;;;;4915042;28;88836;-91
2023/05/04 07:25:34;;;;;;;17.60;5.35;;;21.70;59.20;;;;;;4900678;28;87130;-89
2023/05/04 07:28:00;;;;;;;20.17;5.40;;;21.70;58.00;;;;;;4910441;28;89190;-87
2023/05/04 07:30:26;;;;;;;15.63;5.15;;;21.80;58.50;;;;;;4915354;28;89552;-86
2023/05/04 07:32:52;;;;;;;16.77;5.22;;;21.70;58.70;;;;;;4912540;28;87771;-87
2023/05/04 07:35:18;;;;;;;16.48;6.00;;;21.70;58.60;;;;;;4915076;28;88692;-88
2023/05/04 07:37:43;;;;;;;15.98;5.40;;;21.70;58.60;;;;;;4914498;28;87499;-87
2023/05/04 07:40:10;;;;;;;17.83;4.97;;;21.70;58.60;;;;;;4879950;28;90711;-86
2023/05/04 07:42:36;;;;;;;17.77;6.05;;;21.70;58.70;;;;;;4908470;28;89187;-88
2023/05/04 07:45:02;;;;;;;16.70;5.40;;;21.70;58.70;;;;;;4894829;28;87989;-87
2023/05/04 07:47:28;;;;;;;13.23;5.88;;;21.70;58.80;;;;;;4899831;28;89393;-89
2023/05/04 07:49:53;;;;;;;15.35;4.95;;;21.70;58.70;;;;;;4919098;28;87378;-88
2023/05/04 07:52:19;;;;;;;17.02;6.18;;;21.70;58.70;;;;;;4920891;28;86842;-89
2023/05/04 07:54:45;;;;;;;16.88;5.38;;;21.70;58.80;;;;;;4921619;28;87266;-88
2023/05/04 07:57:10;;;;;;;13.57;4.95;;;21.80;59.00;;;;;;4903368;28;88410;-89
2023/05/04 07:59:36;;;;;;;14.48;5.40;;;21.80;59.00;;;;;;4905776;28;91117;-89
2023/05/04 08:02:02;;;;;;;15.40;4.88;;;21.80;58.90;;;;;;4920902;28;87698;-89
2023/05/04 08:04:28;;;;;;;13.80;5.07;;;21.80;58.90;;;;;;4919607;28;87960;-88
2023/05/04 08:06:54;;;;;;;12.43;4.82;;;21.80;58.90;;;;;;4917147;28;87561;-90
2023/05/04 08:09:20;;;;;;;11.48;5.75;;;21.80;59.00;;;;;;4896207;28;92063;-86
2023/05/04 08:11:47;;;;;;;15.07;5.13;;;21.80;59.00;;;;;;4895589;28;90729;-87
2023/05/04 08:14:12;;;;;;;18.00;5.68;;;21.80;58.90;;;;;;4898753;28;87848;-87
2023/05/04 08:16:38;;;;;;;13.10;5.53;;;21.90;59.10;;;;;;4897975;28;89729;-87
2023/05/04 08:19:05;;;;;;;17.23;4.70;;;21.90;59.10;;;;;;4912575;28;87506;-86
2023/05/04 08:21:30;;;;;;;12.63;4.80;;;21.90;59.10;;;;;;4914039;28;87454;-87
2023/05/04 08:23:56;;;;;;;15.52;4.95;;;21.90;58.90;;;;;;4895259;28;89162;-87
2023/05/04 08:26:22;;;;;;;12.48;4.80;;;21.90;58.90;;;;;;4914199;28;87557;-87
2023/05/04 08:28:49;;;;;;;18.35;5.38;;;21.90;58.90;;;;;;4913871;28;88124;-87
2023/05/04 08:31:17;;;;;;;13.80;5.18;;;22.00;59.00;;;;;;4898623;28;90541;-85
2023/05/04 08:33:43;;;;;;;12.40;4.55;;;22.00;58.90;;;;;;4914563;28;87936;-87
2023/05/04 08:36:09;;;;;;;12.68;5.10;;;22.00;58.80;;;;;;4898936;28;89557;-88
2023/05/04 08:38:35;;;;;;;20.35;5.28;;;22.00;58.90;;;;;;4895125;28;90952;-88
2023/05/04 08:41:05;;;;;;;12.82;4.82;;;22.10;58.90;;;;;;4900090;28;90672;-86
2023/05/04 08:43:37;;;;;;;11.73;4.55;;;22.10;58.70;;;;;;4917683;28;87557;-86
2023/05/04 08:46:03;;;;;;;8.60;4.22;;;22.20;59.00;;;;;;4900386;28;87907;-87
2023/05/04 08:48:32;;;;;;;13.90;5.05;;;22.20;58.80;;;;;;4901956;28;91407;-86
2023/05/04 08:50:58;;;;;;;12.90;4.75;;;22.20;58.70;;;;;;4900979;28;91693;-88
2023/05/04 08:53:25;;;;;;;10.85;4.85;;;22.20;58.80;;;;;;4920494;28;87708;-87
2023/05/04 08:55:54;;;;;;;10.70;4.50;;;22.30;58.70;;;;;;4917961;28;87216;-87
2023/05/04 08:58:22;;;;;;;10.95;4.47;;;22.30;58.70;;;;;;4918439;28;87661;-87
2023/05/04 09:00:48;;;;;;;11.73;4.47;;;22.30;58.80;;;;;;4900850;28;90417;-86
2023/05/04 09:03:15;;;;;;;9.98;4.32;;;22.30;58.60;;;;;;4900885;28;87613;-85
2023/05/04 09:05:45;;;;;;;10.93;4.63;;;22.40;58.60;;;;;;4919669;28;86873;-89
2023/05/04 09:08:10;;;;;;;12.57;4.18;;;22.40;58.50;;;;;;4918298;28;88167;-88
2023/05/04 09:10:36;;;;;;;14.15;5.15;;;22.40;58.60;;;;;;4918312;28;87791;-87
2023/05/04 09:13:02;;;;;;;9.93;4.07;;;22.40;58.50;;;;;;4908445;28;88524;-86
2023/05/04 09:15:28;;;;;;;9.23;4.18;;;22.40;58.40;;;;;;4902845;28;89638;-89
2023/05/04 09:18:08;;;;;;;11.27;3.83;;;22.50;58.30;;;;;;4900568;28;90554;-86
2023/05/04 09:20:45;;;;;;;10.02;4.50;;;22.60;58.40;;;;;;4902930;28;90349;-89
2023/05/04 09:23:12;;;;;;;10.45;4.22;;;22.60;58.30;;;;;;4920869;28;87994;-88
2023/05/04 09:25:54;;;;;;;10.18;4.38;;;22.60;58.20;;;;;;4919186;28;87597;-87
2023/05/04 09:28:34;;;;;;;12.00;4.18;;;22.60;58.10;;;;;;4897492;28;90074;-87
2023/05/04 09:31:01;;;;;;;7.25;4.22;;;22.60;58.00;;;;;;4901035;28;89895;-88
2023/05/04 09:33:27;;;;;;;7.13;3.22;;;22.60;58.10;;;;;;4903070;28;87366;-86
2023/05/04 09:35:53;;;;;;;10.52;4.45;;;22.70;58.20;;;;;;4919705;28;87467;-87
2023/05/04 09:38:25;;;;;;;9.82;4.28;;;22.60;58.10;;;;;;4918137;28;89915;-88
2023/05/04 09:40:51;;;;;;;10.07;4.32;;;22.70;58.20;;;;;;4916927;28;91586;-88
2023/05/04 09:43:17;;;;;;;8.02;4.00;;;22.60;58.10;;;;;;4918660;28;87817;-87
2023/05/04 09:45:47;;;;;;;8.45;4.03;;;22.70;58.20;;;;;;4916299;28;87197;-90
2023/05/04 09:48:17;;;;;;;7.65;3.80;;;22.70;58.10;;;;;;4918275;28;87425;-87
2023/05/04 09:50:54;;;;;;;9.93;4.22;;;22.70;58.10;;;;;;4915213;28;87835;-89
2023/05/04 09:53:23;;;;;;;9.18;3.60;;;22.70;58.10;;;;;;4899779;28;87955;-87
2023/05/04 09:56:10;;;;;;;7.28;3.45;;;22.70;58.10;;;;;;4916795;28;86562;-87
2023/05/04 09:58:36;;;;;;;9.63;4.20;;;22.70;58.10;;;;;;4899162;28;89436;-87
2023/05/04 10:01:02;;;;;;;9.63;4.10;;;22.70;57.80;;;;;;4916852;28;87801;-88
2023/05/04 10:03:28;;;;;;;8.45;4.00;;;22.70;58.00;;;;;;4916280;28;88624;-87
2023/05/04 10:05:56;;;;;;;8.82;4.30;;;22.70;58.00;;;;;;4898316;28;89338;-88
2023/05/04 10:08:22;;;;;;;8.43;3.80;;;22.60;58.30;;;;;;4914731;28;87750;-88
2023/05/04 10:10:48;;;;;;;7.68;3.45;;;22.70;58.30;;;;;;4916796;28;87663;-87
2023/05/04 10:13:16;;;;;;;8.25;3.67;;;22.70;58.30;;;;;;4916045;28;87275;-89
2023/05/04 10:15:53;;;;;;;9.55;4.53;;;22.70;58.40;;;;;;4917422;28;87062;-86
2023/05/04 10:19:10;;;;;;;10.85;4.47;;;22.80;58.40;;;;;;4896983;28;90646;-87
2023/05/04 10:21:53;;;;;;;9.57;3.88;;;22.80;58.40;;;;;;4859703;28;87643;-86
2023/05/04 10:24:44;;;;;;;15.45;3.97;;;22.80;58.60;;;;;;4917686;28;87818;-86
2023/05/04 10:27:15;;;;;;;8.45;4.07;;;22.80;58.50;;;;;;4918154;28;87761;-86
2023/05/04 10:29:46;;;;;;;10.55;4.45;;;22.80;58.50;;;;;;4899808;28;90775;-89
2023/05/04 10:32:24;;;;;;;11.18;4.22;;;22.80;58.60;;;;;;4917555;28;87590;-86
2023/05/04 10:34:51;;;;;;;8.07;4.13;;;22.70;58.70;;;;;;4918446;28;87649;-86
2023/05/04 10:37:18;;;;;;;9.50;3.70;;;22.60;58.00;;;;;;4899384;28;89376;-89
2023/05/04 10:39:52;;;;;;;8.30;3.75;;;22.60;57.40;;;;;;4900708;28;90651;-89
2023/05/04 10:42:18;;;;;;;7.78;3.58;;;22.40;56.30;;;;;;4898684;28;90865;-89
2023/05/04 10:44:53;;;;;;;8.27;4.00;;;22.30;56.50;;;;;;4915259;28;87453;-87
2023/05/04 10:47:33;;;;;;;9.50;3.95;;;22.30;57.70;;;;;;4918739;28;86705;-87
2023/05/04 10:50:03;;;;;;;6.20;3.05;;;22.40;57.60;;;;;;4899664;28;90591;-86
2023/05/04 10:52:43;;;;;;;11.05;3.88;;;22.40;57.40;;;;;;4915468;28;87647;-88
2023/05/04 10:55:09;;;;;;;8.00;3.55;;;22.50;57.40;;;;;;4900559;28;88362;-87
2023/05/04 10:57:57;;;;;;;6.95;3.63;;;22.60;57.20;;;;;;4915148;28;89625;-88
2023/05/04 11:00:38;;;;;;;7.25;3.22;;;22.40;57.30;;;;;;4907647;28;88133;-86
2023/05/04 11:03:06;;;;;;;9.77;3.65;;;22.40;57.70;;;;;;4913386;28;90549;-87
2023/05/04 11:05:51;;;;;;;6.63;3.80;;;22.40;57.80;;;;;;4898208;28;87529;-87
2023/05/04 11:08:24;;;;;;;6.47;3.45;;;22.40;57.80;;;;;;4898885;28;90420;-87
2023/05/04 11:11:01;;;;;;;9.18;3.97;;;22.40;58.00;;;;;;4894962;28;90798;-87
2023/05/04 11:13:29;;;;;;;10.52;3.60;;;22.30;58.10;;;;;;4914617;28;88402;-89
2023/05/04 11:15:55;;;;;;;7.70;4.22;;;22.30;58.10;;;;;;4917354;28;87910;-89
2023/05/04 11:18:36;;;;;;;8.60;3.97;;;22.30;58.20;;;;;;4898808;28;89830;-88
2023/05/04 11:21:02;;;;;;;6.65;3.35;;;22.30;58.20;;;;;;4900340;28;91806;-88
2023/05/04 11:23:29;;;;;;;7.60;3.75;;;22.30;58.10;;;;;;4898191;28;91555;-89
2023/05/04 11:25:55;;;;;;;7.95;3.42;;;22.30;58.00;;;;;;4918342;28;87907;-90
2023/05/04 11:28:34;;;;;;;5.63;3.45;;;22.30;58.00;;;;;;4902398;28;90174;-90
2023/05/04 11:31:14;;;;;;;10.38;4.07;;;22.30;58.10;;;;;;4900911;28;89383;-90
2023/05/04 11:33:47;;;;;;;10.70;3.72;;;22.30;57.70;;;;;;4895802;28;90401;-90
2023/05/04 11:36:13;;;;;;;10.50;4.25;;;22.30;57.50;;;;;;4899582;28;88160;-88
2023/05/04 11:38:38;;;;;;;6.20;3.60;;;22.20;57.20;;;;;;4900862;28;88167;-89
2023/05/04 11:41:04;;;;;;;9.07;3.70;;;22.20;57.60;;;;;;4893971;28;91379;-90
2023/05/04 11:43:32;;;;;;;11.38;4.28;;;22.20;58.10;;;;;;4913687;28;88118;-90
2023/05/04 11:45:59;;;;;;;7.43;3.58;;;22.20;58.20;;;;;;4896083;28;88572;-90
2023/05/04 11:48:27;;;;;;;5.32;3.50;;;22.20;58.50;;;;;;4897044;28;90447;-89
2023/05/04 11:50:54;;;;;;;9.55;4.15;;;22.20;58.50;;;;;;4893741;28;88889;-90
2023/05/04 11:53:21;;;;;;;6.13;3.38;;;22.20;58.60;;;;;;4913672;28;88265;-89
2023/05/04 11:55:48;;;;;;;8.90;3.65;;;22.20;58.70;;;;;;4908252;28;87580;-89
2023/05/04 11:58:14;;;;;;;7.90;3.60;;;22.20;58.70;;;;;;4897053;28;89459;-88
2023/05/04 12:00:44;;;;;;;6.60;3.83;;;22.20;58.60;;;;;;4913705;28;91998;-88
2023/05/04 12:03:13;;;;;;;6.43;3.50;;;22.20;58.80;;;;;;4896232;28;90235;-88
2023/05/04 12:05:45;;;;;;;;;;;22.20;58.70;;;;;;4908356;28;87565;-88
2023/05/04 12:08:29;;;;;;;10.02;4.32;;;22.10;59.00;;;;;;4890693;28;93816;-89
2023/05/04 12:11:19;;;;;;;6.38;4.03;;;22.10;59.00;;;;;;4850620;28;91651;-88
2023/05/04 12:13:46;;;;;;;6.63;4.05;;;22.10;58.80;;;;;;4855073;28;91665;-88
2023/05/04 12:16:16;;;;;;;14.07;3.75;;;22.10;58.90;;;;;;4887374;28;88637;-88
2023/05/04 12:18:46;;;;;;;6.68;4.53;;;22.10;59.00;;;;;;4888675;28;88544;-88
2023/05/04 12:21:13;;;;;;;;;;;22.10;58.90;;;;;;4905640;28;88012;-87
2023/05/04 12:23:39;;;;;;;9.52;4.30;;;22.20;59.00;;;;;;4889347;28;90736;-88
2023/05/04 12:26:06;;;;;;;9.50;3.40;;;22.10;59.00;;;;;;4904748;28;88201;-89
2023/05/04 12:28:33;;;;;;;10.18;4.38;;;22.10;59.10;;;;;;4887928;28;89397;-88
2023/05/04 12:30:59;;;;;;;7.63;3.92;;;22.10;58.90;;;;;;4904529;28;91264;-88
2023/05/04 12:33:25;;;;;;;8.40;4.13;;;22.20;59.00;;;;;;4905647;28;87708;-88
2023/05/04 12:35:51;;;;;;;5.57;3.47;;;22.20;59.20;;;;;;4906378;28;89151;-89
2023/05/04 12:38:17;;;;;;;8.57;4.00;;;22.20;59.10;;;;;;4889366;28;89402;-89
2023/05/04 12:40:43;;;;;;;12.48;3.88;;;22.10;59.00;;;;;;4905751;28;88988;-89
2023/05/04 12:43:09;;;;;;;7.03;3.85;;;22.10;59.10;;;;;;4886451;28;90203;-88
2023/05/04 12:45:35;;;;;;;7.85;4.25;;;22.20;59.20;;;;;;4906829;28;88440;-89
2023/05/04 12:48:02;;;;;;;5.95;3.70;;;22.20;59.30;;;;;;4887844;28;88492;-89